Jordan Valley, Oregon
Current Conditions -  °F | °C
As of 3:15 PM on Sunday 23 Nov 2014 (Local Time) from KMAN Reporting Station
Clear Clear  
Wind Chill: 46°   Ceiling: Unl
Heat Index: 46°   Visibility: 10mi
Dew Point: 32°   Wind: 3mph
Humidity: 57%   Direction: 330°NNW
Pressure: 30.25"   Gusts: NA
Location:  42.97°N, 117.05°W
Report Text: KMAN 232215Z AUTO 33003KT 10SM CLR 08/00 A3025 RMK AO1
Loading
Personal Weather Stations






























Interactive Weather Map New forecast layout! Learn more

10-Day Weather Forecast

Advertisements
Track Severe Weather on mobile